createdAt,value
2018-11-14T00:00:22.156Z,15.40
2018-11-14T00:02:51.217Z,22.33
2018-11-14T00:05:20.028Z,15.87
2018-11-14T00:07:48.896Z,16.15
2018-11-14T00:10:18.164Z,14.60
2018-11-14T00:12:46.545Z,16.17
2018-11-14T00:15:16.810Z,18.07
2018-11-14T00:17:46.490Z,16.00
2018-11-14T00:20:15.353Z,15.67
2018-11-14T00:22:45.488Z,14.93
2018-11-14T00:25:14.203Z,16.55
2018-11-14T00:27:43.001Z,17.27
2018-11-14T00:30:28.382Z,18.87
2018-11-14T00:32:57.149Z,15.37
2018-11-14T00:35:25.850Z,16.35
2018-11-14T00:37:54.679Z,22.90
2018-11-14T00:40:23.512Z,16.93
2018-11-14T00:42:52.330Z,12.47
2018-11-14T00:45:22.511Z,21.00
2018-11-14T00:47:51.619Z,21.23
2018-11-14T00:50:21.024Z,18.40
2018-11-14T00:52:49.945Z,20.43
2018-11-14T00:55:19.862Z,16.23
2018-11-14T00:57:49.454Z,16.70
2018-11-14T01:00:19.723Z,18.98
2018-11-14T01:02:48.416Z,21.23
2018-11-14T01:05:17.756Z,17.10
2018-11-14T01:07:46.652Z,20.00
2018-11-14T01:10:16.897Z,17.10
2018-11-14T01:12:47.164Z,18.33
2018-11-14T01:15:17.542Z,23.15
2018-11-14T01:17:46.316Z,19.50
2018-11-14T01:20:17.575Z,20.93
2018-11-14T01:22:58.007Z,19.10
2018-11-14T01:25:26.906Z,20.03
2018-11-14T01:27:55.688Z,16.00
2018-11-14T01:30:25.129Z,19.67
2018-11-14T01:32:57.459Z,19.40
2018-11-14T01:35:26.166Z,19.40
2018-11-14T01:37:54.875Z,14.75
2018-11-14T01:40:25.127Z,17.27
2018-11-14T01:42:55.165Z,17.12
2018-11-14T01:45:23.971Z,22.00
2018-11-14T01:47:53.042Z,24.67
2018-11-14T01:50:21.752Z,18.13
2018-11-14T01:52:50.474Z,19.17
2018-11-14T01:55:20.778Z,20.73
2018-11-14T01:57:49.491Z,22.33
2018-11-14T02:00:19.966Z,18.42
2018-11-14T02:02:48.740Z,18.42
2018-11-14T02:05:17.534Z,22.77
2018-11-14T02:07:46.286Z,17.42
2018-11-14T02:10:16.551Z,18.12
2018-11-14T02:12:45.654Z,21.27
2018-11-14T02:15:19.709Z,22.77
2018-11-14T02:17:48.428Z,17.92
2018-11-14T02:20:17.143Z,26.73
2018-11-14T02:22:46.321Z,22.73
2018-11-14T02:25:15.690Z,19.10
2018-11-14T02:27:44.453Z,22.67
2018-11-14T02:30:15.559Z,23.50
2018-11-14T02:32:44.309Z,22.30
2018-11-14T02:35:13.081Z,23.15
2018-11-14T02:37:43.087Z,21.47
2018-11-14T02:40:16.359Z,24.10
2018-11-14T02:42:45.251Z,23.73
2018-11-14T02:45:14.431Z,20.32
2018-11-14T02:47:43.169Z,24.70
2018-11-14T02:50:13.732Z,22.10
2018-11-14T02:52:42.483Z,24.30
2018-11-14T02:55:12.510Z,21.40
2018-11-14T02:57:41.454Z,22.85
2018-11-14T03:00:13.100Z,20.37
2018-11-14T03:02:42.350Z,24.43
2018-11-14T03:05:11.110Z,25.03
2018-11-14T03:07:39.839Z,24.10
2018-11-14T03:10:12.247Z,29.37
2018-11-14T03:12:41.090Z,23.50
2018-11-14T03:15:13.125Z,29.57
2018-11-14T03:17:41.923Z,25.80
2018-11-14T03:20:13.145Z,23.17
2018-11-14T03:22:42.027Z,30.10
2018-11-14T03:25:11.870Z,28.20
2018-11-14T03:27:40.602Z,25.57
2018-11-14T03:30:11.694Z,28.60
2018-11-14T03:32:40.905Z,29.97
2018-11-14T03:35:10.398Z,27.87
2018-11-14T03:37:39.341Z,24.15
2018-11-14T03:40:09.944Z,28.67
2018-11-14T03:42:39.278Z,26.68
2018-11-14T03:45:09.502Z,28.00
2018-11-14T03:47:39.474Z,30.53
2018-11-14T03:50:08.674Z,26.07
2018-11-14T03:52:37.511Z,26.30
2018-11-14T03:55:06.576Z,32.37
2018-11-14T03:57:35.279Z,21.73
2018-11-14T04:00:05.026Z,24.93
2018-11-14T04:02:33.733Z,25.47
2018-11-14T04:05:02.410Z,27.83
2018-11-14T04:07:31.216Z,21.10
2018-11-14T04:09:59.876Z,28.13
2018-11-14T04:12:28.607Z,23.57
2018-11-14T04:14:57.397Z,26.23
2018-11-14T04:17:26.105Z,26.37
2018-11-14T04:19:54.995Z,23.85
2018-11-14T04:22:23.733Z,27.75
2018-11-14T04:24:52.401Z,24.35
2018-11-14T04:27:21.089Z,27.75
2018-11-14T04:29:49.812Z,28.45
2018-11-14T04:32:18.477Z,30.32
2018-11-14T04:34:47.211Z,24.05
2018-11-14T04:37:16.039Z,22.45
2018-11-14T04:39:44.682Z,28.77
2018-11-14T04:42:13.374Z,29.07
2018-11-14T04:44:42.143Z,30.77
2018-11-14T04:47:10.867Z,37.10
2018-11-14T04:49:39.583Z,33.97
2018-11-14T04:52:08.607Z,39.03
2018-11-14T04:54:37.326Z,39.50
2018-11-14T04:57:06.180Z,37.47
2018-11-14T04:59:35.019Z,39.30
2018-11-14T05:02:03.708Z,35.27
2018-11-14T05:04:32.415Z,47.20
2018-11-14T05:07:01.238Z,42.10
2018-11-14T05:09:29.961Z,46.70
2018-11-14T05:11:58.728Z,42.23
2018-11-14T05:14:27.498Z,42.70
2018-11-14T05:16:56.225Z,52.37
2018-11-14T05:19:25.142Z,47.03
2018-11-14T05:21:54.217Z,45.75
2018-11-14T05:24:22.965Z,41.73
2018-11-14T05:26:51.786Z,45.00
2018-11-14T05:29:20.618Z,44.88
2018-11-14T05:31:49.369Z,49.24
2018-11-14T05:34:18.061Z,50.12
2018-11-14T05:36:46.817Z,50.23
2018-11-14T05:39:15.551Z,48.00
2018-11-14T05:41:44.333Z,52.57
2018-11-14T05:44:13.066Z,57.83
2018-11-14T05:46:41.781Z,53.07
2018-11-14T05:49:10.492Z,47.70
2018-11-14T05:51:39.573Z,57.43
2018-11-14T05:54:08.348Z,54.80
2018-11-14T05:56:37.061Z,52.47
2018-11-14T05:59:05.799Z,51.27
2018-11-14T06:01:34.565Z,45.70
2018-11-14T06:04:10.582Z,53.57
2018-11-14T06:06:39.467Z,51.18
2018-11-14T06:09:11.418Z,50.83
2018-11-14T06:11:40.180Z,56.20
2018-11-14T06:14:09.698Z,56.13
2018-11-14T06:21:33.507Z,62.55
2018-11-14T06:24:02.364Z,56.90
2018-11-14T06:26:31.105Z,61.00
2018-11-14T06:29:00.121Z,57.33
2018-11-14T06:31:28.834Z,57.33
2018-11-14T06:33:57.599Z,53.37
2018-11-14T06:36:26.374Z,51.43
2018-11-14T06:38:55.129Z,61.27
2018-11-14T06:41:23.827Z,61.97
2018-11-14T06:43:52.543Z,58.50
2018-11-14T06:46:21.210Z,61.57
2018-11-14T06:48:49.894Z,57.10
2018-11-14T06:51:18.939Z,52.20
2018-11-14T06:53:47.650Z,56.23
2018-11-14T06:56:16.367Z,50.50
2018-11-14T06:58:45.149Z,57.47
2018-11-14T07:01:13.838Z,56.93
2018-11-14T07:03:42.584Z,48.52
2018-11-14T07:06:11.626Z,54.13
2018-11-14T07:08:40.471Z,58.10
2018-11-14T07:11:09.827Z,55.23
2018-11-14T07:13:38.894Z,53.87
2018-11-14T07:16:07.660Z,47.13
2018-11-14T07:18:36.410Z,56.83
2018-11-14T07:21:05.312Z,47.27
2018-11-14T07:23:34.171Z,45.80
2018-11-14T07:26:03.117Z,47.43
2018-11-14T07:28:31.995Z,50.13
2018-11-14T07:31:00.796Z,44.77
2018-11-14T07:33:29.984Z,39.50
2018-11-14T07:35:58.850Z,43.47
2018-11-14T07:38:49.861Z,45.25
2018-11-14T07:41:22.146Z,44.53
2018-11-14T07:43:50.875Z,41.13
2018-11-14T07:46:19.804Z,41.77
2018-11-14T07:48:49.456Z,42.00
2018-11-14T07:51:18.246Z,42.85
2018-11-14T07:53:47.009Z,41.93
2018-11-14T07:56:16.051Z,44.33
2018-11-14T07:58:44.757Z,39.05
2018-11-14T08:01:13.613Z,46.87
2018-11-14T08:03:42.992Z,39.00
2018-11-14T08:06:12.490Z,43.97
2018-11-14T08:08:41.302Z,42.13
2018-11-14T08:11:10.500Z,42.40
2018-11-14T08:13:41.609Z,42.45
2018-11-14T08:16:10.378Z,44.33
2018-11-14T08:18:39.877Z,44.03
2018-11-14T08:21:08.711Z,41.90
2018-11-14T08:23:37.414Z,39.70
2018-11-14T08:26:07.075Z,38.60
2018-11-14T08:28:35.854Z,34.78
2018-11-14T08:31:04.734Z,39.70
2018-11-14T08:33:33.570Z,35.67
2018-11-14T08:36:02.390Z,36.13
2018-11-14T08:38:31.222Z,38.47
2018-11-14T08:41:00.274Z,38.00
2018-11-14T08:43:29.005Z,37.67
2018-11-14T08:45:57.720Z,38.75
2018-11-14T08:48:26.873Z,35.53
2018-11-14T08:50:55.607Z,40.43
2018-11-14T08:53:24.345Z,40.57
2018-11-14T08:55:53.236Z,41.77
2018-11-14T08:58:21.958Z,37.07
2018-11-14T09:00:50.681Z,37.20
2018-11-14T09:03:19.574Z,39.77
2018-11-14T09:05:48.302Z,39.53
2018-11-14T09:08:17.075Z,38.30
2018-11-14T09:10:45.892Z,40.08
2018-11-14T09:13:15.779Z,38.30
2018-11-14T09:15:44.633Z,44.87
2018-11-14T09:18:13.612Z,43.60
2018-11-14T09:20:42.650Z,41.90
2018-11-14T09:23:11.969Z,41.60
2018-11-14T09:25:41.752Z,42.40
2018-11-14T09:28:10.782Z,39.80
2018-11-14T09:30:39.944Z,38.73
2018-11-14T09:33:09.171Z,34.70
2018-11-14T09:35:37.845Z,35.90
2018-11-14T09:38:06.623Z,35.70
2018-11-14T09:40:35.515Z,35.00
2018-11-14T09:43:04.371Z,36.40
2018-11-14T09:45:33.193Z,35.43
2018-11-14T09:48:01.958Z,38.70
2018-11-14T09:50:31.696Z,37.53
2018-11-14T09:53:02.798Z,42.07
2018-11-14T09:55:31.520Z,44.13
2018-11-14T09:58:00.284Z,40.20
2018-11-14T10:00:30.364Z,43.03
2018-11-14T10:03:03.067Z,36.90
2018-11-14T10:05:31.953Z,38.83
2018-11-14T10:08:00.691Z,38.73
2018-11-14T10:10:29.389Z,33.27
2018-11-14T10:12:58.283Z,34.07
2018-11-14T10:15:27.082Z,35.28
2018-11-14T10:17:55.841Z,38.10
2018-11-14T10:20:25.753Z,34.48
2018-11-14T10:22:54.507Z,35.40
2018-11-14T10:25:23.303Z,36.05
2018-11-14T10:27:55.295Z,40.03
2018-11-14T10:30:28.357Z,40.98
2018-11-14T10:32:57.515Z,38.60
2018-11-14T10:35:27.954Z,36.80
2018-11-14T10:37:57.122Z,45.27
2018-11-14T10:40:27.939Z,38.80
2018-11-14T10:42:56.894Z,34.77
2018-11-14T10:45:26.469Z,36.77
2018-11-14T10:47:55.497Z,36.95
2018-11-14T10:50:26.281Z,33.75
2018-11-14T10:52:55.044Z,32.28
2018-11-14T10:55:24.197Z,35.52
2018-11-14T10:57:53.436Z,44.93
2018-11-14T11:00:28.364Z,38.08
2018-11-14T11:03:02.860Z,35.52
2018-11-14T11:05:36.909Z,31.53
2018-11-14T11:08:11.039Z,35.97
2018-11-14T11:10:45.367Z,33.78
2018-11-14T11:13:19.141Z,34.47
2018-11-14T11:15:54.244Z,35.40
2018-11-14T11:18:29.734Z,35.58
2018-11-14T11:20:58.719Z,35.50
2018-11-14T11:23:28.011Z,36.63
2018-11-14T11:25:59.998Z,37.55
2018-11-14T11:28:30.042Z,34.20
2018-11-14T11:30:59.090Z,39.53
2018-11-14T11:33:28.103Z,34.60
2018-11-14T11:35:56.908Z,31.43
2018-11-14T11:38:25.769Z,37.30
2018-11-14T11:40:54.566Z,31.27
2018-11-14T11:43:23.390Z,39.85
2018-11-14T11:45:56.090Z,36.45
2018-11-14T11:48:24.822Z,39.37
2018-11-14T11:50:53.592Z,35.83
2018-11-14T11:53:22.447Z,39.13
2018-11-14T11:55:51.236Z,41.18
2018-11-14T11:58:19.974Z,37.57
2018-11-14T12:00:48.909Z,40.55
2018-11-14T12:03:17.582Z,38.17
2018-11-14T12:05:46.678Z,40.23
2018-11-14T12:08:15.495Z,41.77
2018-11-14T12:10:44.493Z,41.75
2018-11-14T12:13:13.315Z,40.88
2018-11-14T12:15:42.081Z,38.63
2018-11-14T12:18:11.210Z,39.03
2018-11-14T12:20:40.445Z,43.30
2018-11-14T12:23:10.493Z,42.62
2018-11-14T12:25:39.338Z,38.45
2018-11-14T12:28:08.073Z,41.70
2018-11-14T12:30:37.993Z,45.17
2018-11-14T12:33:07.238Z,44.93
2018-11-14T12:35:36.192Z,44.80
2018-11-14T12:38:05.275Z,38.57
2018-11-14T12:40:34.066Z,43.70
2018-11-14T12:43:02.870Z,41.87
2018-11-14T12:45:31.838Z,40.67
2018-11-14T12:48:00.631Z,36.93
2018-11-14T12:50:29.437Z,42.97
2018-11-14T12:52:58.511Z,42.40
2018-11-14T12:55:27.299Z,43.50
2018-11-14T12:57:56.368Z,43.23
2018-11-14T13:00:25.564Z,44.43
2018-11-14T13:02:54.989Z,41.50
2018-11-14T13:05:23.757Z,49.98
2018-11-14T13:07:52.975Z,43.75
2018-11-14T13:10:21.816Z,41.03
2018-11-14T13:12:51.170Z,42.77
2018-11-14T13:15:21.138Z,40.28
2018-11-14T13:17:50.086Z,46.77
2018-11-14T13:20:20.532Z,45.20
2018-11-14T13:22:49.459Z,40.60
2018-11-14T13:25:18.211Z,44.13
2018-11-14T13:27:47.841Z,40.98
2018-11-14T13:30:22.583Z,41.70
2018-11-14T13:32:51.961Z,45.33
2018-11-14T13:35:22.634Z,43.77
2018-11-14T13:37:52.095Z,41.00
2018-11-14T13:40:21.688Z,48.13
2018-11-14T13:42:50.628Z,44.67
2018-11-14T13:45:20.156Z,40.27
2018-11-14T13:47:49.064Z,45.43
2018-11-14T13:50:24.143Z,41.33
2018-11-14T13:52:53.028Z,39.43
2018-11-14T13:55:22.309Z,39.17
2018-11-14T13:57:52.185Z,41.57
2018-11-14T14:00:22.010Z,40.23
2018-11-14T14:02:54.067Z,41.08
2018-11-14T14:05:27.080Z,36.30
2018-11-14T14:08:03.838Z,41.13
2018-11-14T14:10:34.866Z,42.10
2018-11-14T14:13:04.394Z,39.77
2018-11-14T14:15:33.385Z,40.03
2018-11-14T14:18:02.155Z,39.17
2018-11-14T14:20:31.245Z,39.43
2018-11-14T14:23:00.033Z,41.20
2018-11-14T14:25:28.933Z,37.37
2018-11-14T14:27:57.951Z,36.00
2018-11-14T14:30:26.741Z,39.33
2018-11-14T14:32:55.595Z,43.23
2018-11-14T14:35:24.805Z,43.30
2018-11-14T14:37:53.662Z,44.42
2018-11-14T14:40:23.223Z,47.38
2018-11-14T14:42:52.206Z,45.67
2018-11-14T14:45:22.938Z,42.57
2018-11-14T14:47:51.982Z,42.62
2018-11-14T14:50:21.490Z,38.40
2018-11-14T14:52:50.275Z,43.17
2018-11-14T14:55:22.220Z,36.00
2018-11-14T14:57:51.128Z,39.47
2018-11-14T15:00:28.555Z,39.48
2018-11-14T15:02:57.342Z,34.23
2018-11-14T15:05:26.204Z,38.50
2018-11-14T15:07:55.155Z,36.05
2018-11-14T15:10:24.730Z,31.33
2018-11-14T15:12:53.475Z,32.88
2018-11-14T15:15:22.684Z,37.55
2018-11-14T15:17:51.394Z,31.10
2018-11-14T15:20:24.546Z,30.80
2018-11-14T15:22:53.524Z,33.03
2018-11-14T15:25:23.334Z,32.87
2018-11-14T15:27:52.547Z,31.97
2018-11-14T15:30:26.826Z,35.37
2018-11-14T15:32:56.071Z,31.15
2018-11-14T15:35:25.095Z,31.20
2018-11-14T15:37:53.745Z,30.45
2018-11-14T15:40:24.002Z,30.97
2018-11-14T15:42:52.910Z,34.20
2018-11-14T15:45:24.210Z,28.38
2018-11-14T15:47:53.025Z,31.67
2018-11-14T15:50:23.089Z,33.20
2018-11-14T15:52:52.853Z,34.17
2018-11-14T15:55:22.161Z,32.05
2018-11-14T15:57:50.955Z,32.60
2018-11-14T16:00:27.546Z,29.77
2018-11-14T16:02:56.806Z,35.20
2018-11-14T16:05:26.909Z,34.00
2018-11-14T16:07:57.063Z,28.87
2018-11-14T16:10:26.823Z,28.23
2018-11-14T16:12:55.577Z,33.90
2018-11-14T16:15:25.990Z,35.10
2018-11-14T16:17:54.828Z,31.40
2018-11-14T16:20:24.676Z,25.88
2018-11-14T16:22:53.598Z,27.87
2018-11-14T16:25:23.824Z,26.97
2018-11-14T16:27:53.902Z,31.93
2018-11-14T16:30:28.194Z,28.40
2018-11-14T16:32:58.260Z,25.47
2018-11-14T16:35:27.108Z,24.77
2018-11-14T16:37:55.966Z,23.95
2018-11-14T16:40:27.037Z,28.77
2018-11-14T16:42:56.805Z,24.18
2018-11-14T16:45:25.561Z,26.57
2018-11-14T16:47:54.352Z,28.63
2018-11-14T16:50:23.765Z,30.80
2018-11-14T16:52:52.494Z,31.23
2018-11-14T16:55:22.147Z,27.30
2018-11-14T16:57:52.963Z,24.43
2018-11-14T17:00:26.892Z,26.53
2018-11-14T17:02:55.943Z,24.30
2018-11-14T17:05:25.874Z,27.17
2018-11-14T17:07:54.787Z,20.75
2018-11-14T17:10:24.237Z,24.90
2018-11-14T17:12:55.397Z,27.57
2018-11-14T17:15:25.274Z,26.90
2018-11-14T17:17:54.053Z,28.60
2018-11-14T17:20:23.341Z,24.57
2018-11-14T17:22:53.599Z,27.73
2018-11-14T17:25:22.757Z,24.13
2018-11-14T17:27:51.516Z,20.73
2018-11-14T17:30:25.466Z,21.90
2018-11-14T17:32:54.551Z,22.00
2018-11-14T17:35:23.438Z,25.43
2018-11-14T17:37:52.482Z,24.20
2018-11-14T17:40:23.473Z,26.03
2018-11-14T17:42:52.847Z,22.40
2018-11-14T17:45:24.116Z,21.57
2018-11-14T17:47:53.295Z,23.47
2018-11-14T17:50:25.661Z,23.60
2018-11-14T17:52:54.938Z,26.97
2018-11-14T17:55:24.259Z,25.92
2018-11-14T17:57:53.216Z,24.90
2018-11-14T18:00:23.363Z,23.77
2018-11-14T18:02:52.155Z,22.35
2018-11-14T18:05:23.539Z,19.73
2018-11-14T18:07:53.082Z,25.60
2018-11-14T18:10:23.164Z,19.70
2018-11-14T18:12:53.066Z,17.65
2018-11-14T18:15:21.969Z,24.00
2018-11-14T18:17:52.373Z,21.52
2018-11-14T18:20:22.660Z,24.20
2018-11-14T18:22:52.115Z,22.45
2018-11-14T18:25:20.894Z,22.55
2018-11-14T18:27:49.803Z,21.25
2018-11-14T18:30:36.483Z,25.17
2018-11-14T18:33:05.825Z,28.00
2018-11-14T18:35:34.589Z,24.03
2018-11-14T18:38:03.637Z,23.77
2018-11-14T18:40:33.865Z,20.20
2018-11-14T18:43:02.711Z,23.53
2018-11-14T18:45:33.085Z,19.60
2018-11-14T18:48:02.673Z,19.07
2018-11-14T18:50:31.516Z,17.70
2018-11-14T18:53:00.425Z,21.83
2018-11-14T18:55:30.875Z,18.33
2018-11-14T18:58:00.365Z,20.00
2018-11-14T19:00:30.182Z,21.93
2018-11-14T19:02:59.233Z,20.60
2018-11-14T19:05:28.053Z,26.60
2018-11-14T19:07:56.848Z,24.60
2018-11-14T19:10:27.280Z,26.13
2018-11-14T19:12:56.107Z,19.70
2018-11-14T19:15:26.980Z,21.12
2018-11-14T19:17:56.127Z,23.03
2018-11-14T19:20:28.003Z,21.73
2018-11-14T19:22:57.541Z,20.40
2018-11-14T19:25:27.946Z,19.63
2018-11-14T19:27:56.710Z,18.73
2018-11-14T19:30:26.822Z,19.67
2018-11-14T19:32:56.190Z,16.80
2018-11-14T19:35:24.956Z,16.97
2018-11-14T19:37:54.862Z,18.50
2018-11-14T19:40:27.975Z,15.00
2018-11-14T19:42:57.981Z,22.13
2018-11-14T19:45:28.512Z,19.95
2018-11-14T19:47:57.339Z,16.60
2018-11-14T19:50:26.497Z,20.17
2018-11-14T19:52:55.391Z,17.37
2018-11-14T19:55:25.344Z,19.52
2018-11-14T19:57:55.956Z,18.02
2018-11-14T20:00:28.465Z,16.40
2018-11-14T20:02:57.323Z,23.30
2018-11-14T20:05:27.831Z,20.05
2018-11-14T20:07:56.624Z,19.90
2018-11-14T20:10:27.176Z,20.37
2018-11-14T20:12:55.991Z,17.53
2018-11-14T20:15:29.517Z,15.53
2018-11-14T20:17:58.421Z,19.30
2018-11-14T20:20:28.749Z,19.98
2018-11-14T20:22:57.662Z,15.10
2018-11-14T20:25:26.544Z,18.12
2018-11-14T20:27:55.313Z,14.90
2018-11-14T20:30:30.808Z,17.52
2018-11-14T20:33:01.288Z,15.80
2018-11-14T20:35:30.190Z,16.60
2018-11-14T20:37:59.083Z,14.60
2018-11-14T20:40:28.266Z,22.37
2018-11-14T20:42:57.430Z,20.73
2018-11-14T20:45:28.432Z,16.65
2018-11-14T20:47:57.190Z,16.63
2018-11-14T20:50:26.652Z,18.33
2018-11-14T20:52:57.337Z,18.75
2018-11-14T20:55:26.783Z,16.60
2018-11-14T20:57:55.602Z,18.30
2018-11-14T21:00:40.042Z,18.27
2018-11-14T21:03:09.282Z,20.87
2018-11-14T21:05:38.207Z,16.23
2018-11-14T21:08:07.390Z,17.93
2018-11-14T21:10:36.403Z,17.10
2018-11-14T21:13:06.003Z,17.93
2018-11-14T21:15:37.123Z,17.17
2018-11-14T21:18:06.076Z,16.93
2018-11-14T21:20:34.780Z,15.80
2018-11-14T21:23:03.743Z,20.23
2018-11-14T21:25:32.412Z,16.57
2018-11-14T21:28:01.269Z,16.50
2018-11-14T21:30:30.740Z,20.20
2018-11-14T21:32:59.906Z,20.82
2018-11-14T21:35:31.675Z,17.60
2018-11-14T21:38:01.998Z,16.43
2018-11-14T21:40:30.818Z,21.03
2018-11-14T21:43:00.340Z,18.20
2018-11-14T21:45:29.710Z,17.70
2018-11-14T21:48:04.645Z,15.95
2018-11-14T21:50:33.942Z,18.42
2018-11-14T21:53:02.753Z,23.33
2018-11-14T21:55:31.732Z,16.07
2018-11-14T21:58:00.506Z,19.93
2018-11-14T22:00:33.457Z,16.30
2018-11-14T22:03:02.569Z,15.13
2018-11-14T22:05:31.418Z,17.43
2018-11-14T22:08:00.326Z,13.80
2018-11-14T22:10:35.786Z,19.73
2018-11-14T22:13:04.671Z,14.93
2018-11-14T22:15:33.616Z,18.17
2018-11-14T22:18:02.355Z,12.20
2018-11-14T22:20:38.182Z,14.83
2018-11-14T22:23:06.953Z,14.80
2018-11-14T22:25:35.707Z,18.67
2018-11-14T22:28:05.706Z,12.50
2018-11-14T22:30:35.236Z,16.10
2018-11-14T22:33:04.069Z,19.57
2018-11-14T22:35:33.495Z,13.83
2018-11-14T22:38:02.252Z,16.73
2018-11-14T22:40:32.097Z,16.43
2018-11-14T22:43:00.850Z,13.30
2018-11-14T22:45:31.740Z,12.30
2018-11-14T22:48:00.480Z,15.07
2018-11-14T22:50:29.296Z,14.63
2018-11-14T22:52:58.010Z,18.30
2018-11-14T22:55:27.096Z,17.32
2018-11-14T22:57:56.042Z,14.27
2018-11-14T23:00:29.671Z,12.55
2018-11-14T23:03:00.709Z,14.60
2018-11-14T23:05:29.511Z,14.77
2018-11-14T23:07:58.925Z,17.33
2018-11-14T23:10:28.493Z,13.40
2018-11-14T23:12:57.263Z,14.53
2018-11-14T23:15:26.133Z,13.67
2018-11-14T23:17:55.004Z,17.55
2018-11-14T23:20:23.736Z,13.77
2018-11-14T23:22:53.013Z,13.27
2018-11-14T23:25:22.395Z,16.77
2018-11-14T23:27:52.311Z,11.37
2018-11-14T23:30:22.255Z,13.10
2018-11-14T23:32:52.328Z,14.50
2018-11-14T23:35:23.221Z,12.95
2018-11-14T23:37:56.244Z,13.22
2018-11-14T23:40:25.211Z,12.58
2018-11-14T23:42:54.102Z,13.78
2018-11-14T23:45:23.805Z,14.30
2018-11-14T23:47:52.581Z,14.23
2018-11-14T23:50:23.435Z,14.33
2018-11-14T23:52:53.208Z,15.67
2018-11-14T23:55:22.726Z,13.08
2018-11-14T23:57:51.470Z,14.37
